Seabourn Legend — C6FR6 — position and weather

sailwx.info

Track history (hours):
 
Tides and Currents Weather Stations Pressure Air Temp Water Temp Dewpoint Dewpoint Depression Visibility Wind Speed Wind Dir Waves Ship Positions

Seabourn Legend

Operator: Cunard Seabourn

Last reported at 2018-Jul-21 19:00 UTC. Time now 2018-Jul-22 03:22 UTC.
Position N 55°06' W 131°30'.

Length 135 m; draft 5.7 m.

Type: Passenger vessel. MMSI: 311085000.

Wind from 300 at 6 knots

Barometer 1024.4 mb
Air temperature 19.5 ° C
Visibility: greater than 10.8 NM
Dewpoint 15.3 ° C

Date/timePositionNaut miles runAvg speedWind from/ knotsBaromVisibWave heightAir tempDewpointWater temp
2018-Jul-21 19:00N 55°06' W 131°30'33 3.7 300 / 61024.410.8 19.515.3
2018-Jul-21 10:02N 54°33' W 131°43'1 8.4
2018-Jul-21 09:58N 54°33' W 131°44'4 7.6
2018-Jul-21 09:30N 54°31' W 131°48'5 5.1
2018-Jul-21 08:36N 54°27' W 131°43'2 9.4
2018-Jul-21 08:23N 54°27' W 131°40'510.2
2018-Jul-21 07:55N 54°31' W 131°34'811.1
2018-Jul-21 07:13N 54°37' W 131°26'311.3
2018-Jul-21 06:58N 54°38' W 131°22'911.3
2018-Jul-21 06:10N 54°45' W 131°11'210.8
2018-Jul-21 06:00N 54°46' W 131°10'610.8
2018-Jul-21 05:26N 54°52' W 131°09'100 3.0
2018-Jul-19 20:00N 56°24' W 132°18'133 4.9 1023.010.8 21.013.2
2018-Jul-18 17:00N 58°18' W 134°24'48 4.0 150 / 81020.227.0 16.512.0
2018-Jul-18 05:00N 57°36' W 133°42'49 2.1 180 / 61018.327.0 14.010.2
2018-Jul-17 06:00N 58°06' W 134°54'1413.4 270 / 71019.3 1.1 16.010.3
2018-Jul-17 04:56N 58°09' W 135°20'4 7.9
2018-Jul-17 04:29N 58°08' W 135°27'3 0.8
2018-Jul-17 01:00N 58°06' W 135°24'3 1.0 010 / 41017.710.8 17.0 10.2
2018-Jul-16 22:01N 58°08' W 135°27'0 0.2
2018-Jul-16 21:44N 58°08' W 135°27'2 3.6
2018-Jul-16 21:15N 58°10' W 135°25'310.8
2018-Jul-16 20:58N 58°13' W 135°27'714.8
2018-Jul-16 20:30N 58°16' W 135°39'715.5
2018-Jul-16 20:01N 58°19' W 135°52'816.8
2018-Jul-16 19:31N 58°19' W 136°08'8 1.7
2018-Jul-16 14:40N 58°16' W 136°22'0 0.1
2018-Jul-16 14:22N 58°16' W 136°22'3 5.5
2018-Jul-16 13:53N 58°18' W 136°18'4 9.9
2018-Jul-16 13:30N 58°19' W 136°11'4 7.5
2018-Jul-16 12:59N 58°20' W 136°04'4 8.1
2018-Jul-16 12:30N 58°19' W 135°56'510.1
2018-Jul-16 12:00N 58°18' W 135°47'5 9.8
2018-Jul-16 11:30N 58°16' W 135°38'5 9.6
2018-Jul-16 11:00N 58°15' W 135°30'127 9.8
2018-Jul-15 22:00N 56°12' W 134°30'130 4.5 170 / 151019.6 2.2 15.011.3
2018-Jul-14 17:02N 54°43' W 131°41'395.7
2018-Jul-14 17:00N 54°42' W 131°36'317.0 020 / 61025.410.8 17.011.5
2018-Jul-14 16:49N 54°41' W 131°41'413.2
2018-Jul-14 16:30N 54°37' W 131°39'712.8
2018-Jul-14 15:59N 54°31' W 131°35'612.8
2018-Jul-14 15:30N 54°25' W 131°30'713.0
2018-Jul-14 15:00N 54°19' W 131°25'1313.2
2018-Jul-14 14:00N 54°07' W 131°17'713.7
2018-Jul-14 13:30N 54°00' W 131°16'713.2
2018-Jul-14 13:00N 53°54' W 131°14'612.9
2018-Jul-14 12:30N 53°47' W 131°13'612.8
2018-Jul-14 12:01N 53°41' W 131°11'713.0
2018-Jul-14 11:30N 53°35' W 131°08'712.7
2018-Jul-14 10:58N 53°28' W 131°04'1213.4
2018-Jul-14 10:03N 53°17' W 130°54'113.9
2018-Jul-14 10:00N 53°17' W 130°53'5313.4
2018-Jul-14 06:01N 52°32' W 130°06'114.0
2018-Jul-14 05:58N 52°31' W 130°05'613.8
2018-Jul-14 05:30N 52°26' W 129°59'713.2
2018-Jul-14 05:00N 52°20' W 129°53'713.5
2018-Jul-14 04:30N 52°15' W 129°47'713.4
2018-Jul-14 04:00N 52°09' W 129°41'713.7
2018-Jul-14 03:30N 52°04' W 129°34'713.4
2018-Jul-14 03:00N 51°58' W 129°28'713.2
2018-Jul-14 02:30N 51°53' W 129°21'713.4
2018-Jul-14 02:00N 51°48' W 129°15'713.2
2018-Jul-14 01:30N 51°42' W 129°09'612.8
2018-Jul-14 01:00N 51°37' W 129°03'612.4
2018-Jul-14 00:30N 51°32' W 128°58'612.9
2018-Jul-14 00:00N 51°27' W 128°51'713.1
2018-Jul-13 23:30N 51°23' W 128°42'612.7
2018-Jul-13 23:00N 51°20' W 128°33'613.0
2018-Jul-13 22:30N 51°16' W 128°25'612.8
2018-Jul-13 22:00N 51°12' W 128°17'612.9
2018-Jul-13 21:30N 51°08' W 128°09'713.2
2018-Jul-13 20:59N 51°04' W 127°60'613.2
2018-Jul-13 20:30N 51°01' W 127°51'510.1
2018-Jul-13 20:00N 50°58' W 127°45'611.4
2018-Jul-13 19:30N 50°54' W 127°38'612.0
2018-Jul-13 19:00N 50°51' W 127°30'612.5
2018-Jul-13 18:30N 50°48' W 127°21'612.6
2018-Jul-13 18:00N 50°46' W 127°12'612.4
2018-Jul-13 17:30N 50°43' W 127°03'713.2
2018-Jul-13 17:00N 50°41' W 126°53'713.3
2018-Jul-13 16:29N 50°37' W 126°45'813.5
2018-Jul-13 15:55N 50°31' W 126°37'615.0
2018-Jul-13 15:30N 50°30' W 126°27'914.7
2018-Jul-13 14:54N 50°29' W 126°13'3114.9
2018-Jul-13 12:51N 50°20' W 125°27'411.6
2018-Jul-13 12:28N 50°16' W 125°24'614.0
2018-Jul-13 12:00N 50°10' W 125°22'510.0
2018-Jul-13 11:31N 50°06' W 125°18'4 8.7
2018-Jul-13 11:00N 50°02' W 125°14'4 8.8
2018-Jul-13 10:30N 49°58' W 125°10'4 7.7
2018-Jul-13 10:00N 49°56' W 125°06'4 8.5
2018-Jul-13 09:30N 49°53' W 125°01'5 9.1
2018-Jul-13 09:00N 49°50' W 124°56'5 9.9
2018-Jul-13 08:30N 49°46' W 124°50'5 9.3
2018-Jul-13 08:01N 49°43' W 124°46'5 9.7
2018-Jul-13 07:31N 49°39' W 124°41'5 9.8
2018-Jul-13 07:00N 49°36' W 124°36'5 9.8
2018-Jul-13 06:30N 49°32' W 124°30'5 9.6
2018-Jul-13 06:01N 49°28' W 124°27'5 9.7
2018-Jul-13 05:29N 49°26' W 124°20'5 9.9
2018-Jul-13 05:00N 49°24' W 124°13'810.8
2018-Jul-13 04:16N 49°22' W 124°01'3 9.4
2018-Jul-13 03:56N 49°21' W 123°57'2310.0
2018-Jul-13 01:41N 49°19' W 123°22'3 9.7
2018-Jul-13 01:24N 49°19' W 123°18'510.2
2018-Jul-13 00:57N 49°19' W 123°11'3 7.9
2018-Jul-13 00:31N 49°18' W 123°06'0 0.9
2018-Jul-12 23:59N 49°17' W 123°07'0 0.0
2018-Jul-12 23:30N 49°17' W 123°07'0 0.0
2018-Jul-12 23:00N 49°17' W 123°07'0 0.0
2018-Jul-12 22:30N 49°17' W 123°07'0 0.0
2018-Jul-12 22:00N 49°17' W 123°07'0 0.0
2018-Jul-12 21:30N 49°17' W 123°07'0 0.0
2018-Jul-12 21:00N 49°17' W 123°07'0 0.0
2018-Jul-12 20:30N 49°17' W 123°07'0 0.0
2018-Jul-12 20:00N 49°17' W 123°07'0 0.0
2018-Jul-12 19:30N 49°17' W 123°07'0 0.0
2018-Jul-12 19:00N 49°17' W 123°07'0 0.0
2018-Jul-12 18:30N 49°17' W 123°07'0 0.0
2018-Jul-12 18:00N 49°17' W 123°07'5533.4
2018-Jul-12 18:00N 49°12' W 123°06'510.9 1019.927.0 24.216.4
2018-Jul-12 17:30N 49°17' W 123°07'0 0.0
2018-Jul-12 17:00N 49°17' W 123°07'0 0.0
2018-Jul-12 16:30N 49°17' W 123°07'0 0.0
2018-Jul-12 16:00N 49°17' W 123°07'0 0.0
2018-Jul-12 15:30N 49°17' W 123°07'0 0.3
2018-Jul-12 15:00N 49°17' W 123°06'3 5.0
2018-Jul-12 14:30N 49°19' W 123°09'2711.5
2018-Jul-12 12:08N 49°21' W 123°51'211.9
2018-Jul-12 11:59N 49°22' W 123°54'612.8
2018-Jul-12 11:29N 49°25' W 124°02'1113.2
2018-Jul-12 10:37N 49°32' W 124°16'213.9
2018-Jul-12 10:30N 49°33' W 124°18'713.7
2018-Jul-12 10:00N 49°35' W 124°27'714.0
2018-Jul-12 09:30N 49°39' W 124°36'714.4
2018-Jul-12 09:00N 49°43' W 124°46'715.1
2018-Jul-12 08:30N 49°48' W 124°54'714.8
2018-Jul-12 08:00N 49°53' W 125°03'715.0
2018-Jul-12 07:30N 49°59' W 125°11'816.2
2018-Jul-12 07:00N 50°06' W 125°17'714.0
2018-Jul-12 06:30N 50°12' W 125°22'714.2
2018-Jul-12 06:00N 50°19' W 125°25'10 8.8
2018-Jul-12 04:49N 50°22' W 125°41'2710.7
2018-Jul-12 02:18N 50°30' W 126°21'411.6
2018-Jul-12 01:56N 50°30' W 126°28'811.6
2018-Jul-12 01:12N 50°32' W 126°41'311.1
2018-Jul-12 00:56N 50°33' W 126°45'2 4.0
2018-Jul-12 00:26N 50°34' W 126°48'510.7
2018-Jul-11 23:56N 50°35' W 126°56'510.2
2018-Jul-11 23:28N 50°37' W 127°03'510.8
2018-Jul-11 23:00N 50°38' W 127°11'712.4
2018-Jul-11 22:24N 50°44' W 127°19'512.2
2018-Jul-11 22:00N 50°47' W 127°24'612.6
2018-Jul-11 21:30N 50°51' W 127°32'612.5
2018-Jul-11 21:00N 50°55' W 127°39'612.8
2018-Jul-11 20:30N 50°59' W 127°48'611.4
2018-Jul-11 20:00N 51°02' W 127°55'611.6
2018-Jul-11 19:30N 51°05' W 128°03'612.1
2018-Jul-11 19:00N 51°09' W 128°11'  
Track history (hours):
 
Tides and Currents Weather Stations Pressure Air Temp Water Temp Dewpoint Dewpoint Depression Visibility Wind Speed Wind Dir Waves Ship Positions

Seabourn Legend

Operator: Cunard Seabourn

Last reported at 2018-Jul-21 19:00 UTC. Time now 2018-Jul-22 03:22 UTC.
Position N 55°06' W 131°30'.

Length 135 m; draft 5.7 m.

Type: Passenger vessel. MMSI: 311085000.

Wind from 300 at 6 knots

Barometer 1024.4 mb
Air temperature 19.5 ° C
Visibility: greater than 10.8 NM
Dewpoint 15.3 ° C

Date/timePositionNaut miles runAvg speedWind from/ knotsBaromVisibWave heightAir tempDewpointWater temp
2018-Jul-21 19:00N 55°06' W 131°30'33 3.7 300 / 61024.410.8 19.515.3
2018-Jul-21 10:02N 54°33' W 131°43'1 8.4
2018-Jul-21 09:58N 54°33' W 131°44'4 7.6
2018-Jul-21 09:30N 54°31' W 131°48'5 5.1
2018-Jul-21 08:36N 54°27' W 131°43'2 9.4
2018-Jul-21 08:23N 54°27' W 131°40'510.2
2018-Jul-21 07:55N 54°31' W 131°34'811.1
2018-Jul-21 07:13N 54°37' W 131°26'311.3
2018-Jul-21 06:58N 54°38' W 131°22'911.3
2018-Jul-21 06:10N 54°45' W 131°11'210.8
2018-Jul-21 06:00N 54°46' W 131°10'610.8
2018-Jul-21 05:26N 54°52' W 131°09'100 3.0
2018-Jul-19 20:00N 56°24' W 132°18'133 4.9 1023.010.8 21.013.2
2018-Jul-18 17:00N 58°18' W 134°24'48 4.0 150 / 81020.227.0 16.512.0
2018-Jul-18 05:00N 57°36' W 133°42'49 2.1 180 / 61018.327.0 14.010.2
2018-Jul-17 06:00N 58°06' W 134°54'1413.4 270 / 71019.3 1.1 16.010.3
2018-Jul-17 04:56N 58°09' W 135°20'4 7.9
2018-Jul-17 04:29N 58°08' W 135°27'3 0.8
2018-Jul-17 01:00N 58°06' W 135°24'3 1.0 010 / 41017.710.8 17.0 10.2
2018-Jul-16 22:01N 58°08' W 135°27'0 0.2
2018-Jul-16 21:44N 58°08' W 135°27'2 3.6
2018-Jul-16 21:15N 58°10' W 135°25'310.8
2018-Jul-16 20:58N 58°13' W 135°27'714.8
2018-Jul-16 20:30N 58°16' W 135°39'715.5
2018-Jul-16 20:01N 58°19' W 135°52'816.8
2018-Jul-16 19:31N 58°19' W 136°08'8 1.7
2018-Jul-16 14:40N 58°16' W 136°22'0 0.1
2018-Jul-16 14:22N 58°16' W 136°22'3 5.5
2018-Jul-16 13:53N 58°18' W 136°18'4 9.9
2018-Jul-16 13:30N 58°19' W 136°11'4 7.5
2018-Jul-16 12:59N 58°20' W 136°04'4 8.1
2018-Jul-16 12:30N 58°19' W 135°56'510.1
2018-Jul-16 12:00N 58°18' W 135°47'5 9.8
2018-Jul-16 11:30N 58°16' W 135°38'5 9.6
2018-Jul-16 11:00N 58°15' W 135°30'127 9.8
2018-Jul-15 22:00N 56°12' W 134°30'130 4.5 170 / 151019.6 2.2 15.011.3
2018-Jul-14 17:02N 54°43' W 131°41'395.7
2018-Jul-14 17:00N 54°42' W 131°36'317.0 020 / 61025.410.8 17.011.5
2018-Jul-14 16:49N 54°41' W 131°41'413.2
2018-Jul-14 16:30N 54°37' W 131°39'712.8
2018-Jul-14 15:59N 54°31' W 131°35'612.8
2018-Jul-14 15:30N 54°25' W 131°30'713.0
2018-Jul-14 15:00N 54°19' W 131°25'1313.2
2018-Jul-14 14:00N 54°07' W 131°17'713.7
2018-Jul-14 13:30N 54°00' W 131°16'713.2
2018-Jul-14 13:00N 53°54' W 131°14'612.9
2018-Jul-14 12:30N 53°47' W 131°13'612.8
2018-Jul-14 12:01N 53°41' W 131°11'713.0
2018-Jul-14 11:30N 53°35' W 131°08'712.7
2018-Jul-14 10:58N 53°28' W 131°04'1213.4
2018-Jul-14 10:03N 53°17' W 130°54'113.9
2018-Jul-14 10:00N 53°17' W 130°53'5313.4
2018-Jul-14 06:01N 52°32' W 130°06'114.0
2018-Jul-14 05:58N 52°31' W 130°05'613.8
2018-Jul-14 05:30N 52°26' W 129°59'713.2
2018-Jul-14 05:00N 52°20' W 129°53'713.5
2018-Jul-14 04:30N 52°15' W 129°47'713.4
2018-Jul-14 04:00N 52°09' W 129°41'713.7
2018-Jul-14 03:30N 52°04' W 129°34'713.4
2018-Jul-14 03:00N 51°58' W 129°28'713.2
2018-Jul-14 02:30N 51°53' W 129°21'713.4
2018-Jul-14 02:00N 51°48' W 129°15'713.2
2018-Jul-14 01:30N 51°42' W 129°09'612.8
2018-Jul-14 01:00N 51°37' W 129°03'612.4
2018-Jul-14 00:30N 51°32' W 128°58'612.9
2018-Jul-14 00:00N 51°27' W 128°51'713.1
2018-Jul-13 23:30N 51°23' W 128°42'612.7
2018-Jul-13 23:00N 51°20' W 128°33'613.0
2018-Jul-13 22:30N 51°16' W 128°25'612.8
2018-Jul-13 22:00N 51°12' W 128°17'612.9
2018-Jul-13 21:30N 51°08' W 128°09'713.2
2018-Jul-13 20:59N 51°04' W 127°60'613.2
2018-Jul-13 20:30N 51°01' W 127°51'510.1
2018-Jul-13 20:00N 50°58' W 127°45'611.4
2018-Jul-13 19:30N 50°54' W 127°38'612.0
2018-Jul-13 19:00N 50°51' W 127°30'612.5
2018-Jul-13 18:30N 50°48' W 127°21'612.6
2018-Jul-13 18:00N 50°46' W 127°12'612.4
2018-Jul-13 17:30N 50°43' W 127°03'713.2
2018-Jul-13 17:00N 50°41' W 126°53'713.3
2018-Jul-13 16:29N 50°37' W 126°45'813.5
2018-Jul-13 15:55N 50°31' W 126°37'615.0
2018-Jul-13 15:30N 50°30' W 126°27'914.7
2018-Jul-13 14:54N 50°29' W 126°13'3114.9
2018-Jul-13 12:51N 50°20' W 125°27'411.6
2018-Jul-13 12:28N 50°16' W 125°24'614.0
2018-Jul-13 12:00N 50°10' W 125°22'510.0
2018-Jul-13 11:31N 50°06' W 125°18'4 8.7
2018-Jul-13 11:00N 50°02' W 125°14'4 8.8
2018-Jul-13 10:30N 49°58' W 125°10'4 7.7
2018-Jul-13 10:00N 49°56' W 125°06'4 8.5
2018-Jul-13 09:30N 49°53' W 125°01'5 9.1
2018-Jul-13 09:00N 49°50' W 124°56'5 9.9
2018-Jul-13 08:30N 49°46' W 124°50'5 9.3
2018-Jul-13 08:01N 49°43' W 124°46'5 9.7
2018-Jul-13 07:31N 49°39' W 124°41'5 9.8
2018-Jul-13 07:00N 49°36' W 124°36'5 9.8
2018-Jul-13 06:30N 49°32' W 124°30'5 9.6
2018-Jul-13 06:01N 49°28' W 124°27'5 9.7
2018-Jul-13 05:29N 49°26' W 124°20'5 9.9
2018-Jul-13 05:00N 49°24' W 124°13'810.8
2018-Jul-13 04:16N 49°22' W 124°01'3 9.4
2018-Jul-13 03:56N 49°21' W 123°57'2310.0
2018-Jul-13 01:41N 49°19' W 123°22'3 9.7
2018-Jul-13 01:24N 49°19' W 123°18'510.2
2018-Jul-13 00:57N 49°19' W 123°11'3 7.9
2018-Jul-13 00:31N 49°18' W 123°06'0 0.9
2018-Jul-12 23:59N 49°17' W 123°07'0 0.0
2018-Jul-12 23:30N 49°17' W 123°07'0 0.0
2018-Jul-12 23:00N 49°17' W 123°07'0 0.0
2018-Jul-12 22:30N 49°17' W 123°07'0 0.0
2018-Jul-12 22:00N 49°17' W 123°07'0 0.0
2018-Jul-12 21:30N 49°17' W 123°07'0 0.0
2018-Jul-12 21:00N 49°17' W 123°07'0 0.0
2018-Jul-12 20:30N 49°17' W 123°07'0 0.0
2018-Jul-12 20:00N 49°17' W 123°07'0 0.0
2018-Jul-12 19:30N 49°17' W 123°07'0 0.0
2018-Jul-12 19:00N 49°17' W 123°07'0 0.0
2018-Jul-12 18:30N 49°17' W 123°07'0 0.0
2018-Jul-12 18:00N 49°17' W 123°07'5533.4
2018-Jul-12 18:00N 49°12' W 123°06'510.9 1019.927.0 24.216.4
2018-Jul-12 17:30N 49°17' W 123°07'0 0.0
2018-Jul-12 17:00N 49°17' W 123°07'0 0.0
2018-Jul-12 16:30N 49°17' W 123°07'0 0.0
2018-Jul-12 16:00N 49°17' W 123°07'0 0.0
2018-Jul-12 15:30N 49°17' W 123°07'0 0.3
2018-Jul-12 15:00N 49°17' W 123°06'3 5.0
2018-Jul-12 14:30N 49°19' W 123°09'2711.5
2018-Jul-12 12:08N 49°21' W 123°51'211.9
2018-Jul-12 11:59N 49°22' W 123°54'612.8
2018-Jul-12 11:29N 49°25' W 124°02'1113.2
2018-Jul-12 10:37N 49°32' W 124°16'213.9
2018-Jul-12 10:30N 49°33' W 124°18'713.7
2018-Jul-12 10:00N 49°35' W 124°27'714.0
2018-Jul-12 09:30N 49°39' W 124°36'714.4
2018-Jul-12 09:00N 49°43' W 124°46'715.1
2018-Jul-12 08:30N 49°48' W 124°54'714.8
2018-Jul-12 08:00N 49°53' W 125°03'715.0
2018-Jul-12 07:30N 49°59' W 125°11'816.2
2018-Jul-12 07:00N 50°06' W 125°17'714.0
2018-Jul-12 06:30N 50°12' W 125°22'714.2
2018-Jul-12 06:00N 50°19' W 125°25'10 8.8
2018-Jul-12 04:49N 50°22' W 125°41'2710.7
2018-Jul-12 02:18N 50°30' W 126°21'411.6
2018-Jul-12 01:56N 50°30' W 126°28'811.6
2018-Jul-12 01:12N 50°32' W 126°41'311.1
2018-Jul-12 00:56N 50°33' W 126°45'2 4.0
2018-Jul-12 00:26N 50°34' W 126°48'510.7
2018-Jul-11 23:56N 50°35' W 126°56'510.2
2018-Jul-11 23:28N 50°37' W 127°03'510.8
2018-Jul-11 23:00N 50°38' W 127°11'712.4
2018-Jul-11 22:24N 50°44' W 127°19'512.2
2018-Jul-11 22:00N 50°47' W 127°24'612.6
2018-Jul-11 21:30N 50°51' W 127°32'612.5
2018-Jul-11 21:00N 50°55' W 127°39'612.8
2018-Jul-11 20:30N 50°59' W 127°48'611.4
2018-Jul-11 20:00N 51°02' W 127°55'611.6
2018-Jul-11 19:30N 51°05' W 128°03'612.1
2018-Jul-11 19:00N 51°09' W 128°11'  

Dump ship's entire track history